Airfield :







YOU CAN JOIN US ON...

 
LOGIN :

Register | Disclaimer

   EN    FR    IT 

 









Legend :    VFR   Marginal VFR   IFR   Intensive IFR   Very Intensive IFR
Visi :
Ceiling :
>= 8 km
>= 3000ft
5 to 8 km
1000 to 3000 ft
1500m to 5 km
500 to 1000 ft
800 to 1500m
200 to 500 ft
< 800m
< 200 ft
Symbols :   Thunderstorms  Fog  Heavy snow  Heavy precipitations  Wind > 20 kt







- Airport Elevation : 496 ft
- IATA code : YQX


CYQX - Gander

CURRENT METAR :
  • 171000Z 36013G21KT 4SM -RA BR FEW003 BKN006 OVC012 06/06 A2978 RMK SF2SF4SC2 SLP089

EXPIRED METARs :
  • 170900Z 36011G23KT 3SM -RA BR SCT003 OVC006 06/06 A2977 RMK SF4SF4 SLP087
  • 170800Z 35013G19KT 2 1/2SM -RA BR BKN003 OVC006 06/06 A2976 RMK FG2SF5SF1 SLP084
  • 170737Z 35016G22KT 2 1/2SM -DZ BR BKN003 OVC006 06/06 A2976 RMK FG2SF4SF2 SLP083

TAF TAF CYQX
Valid from the 17 at 06:00 until the 18 at 06:00 UTC


170538Z 1706/1806 35010G20KT 2SM -RA BR BKN003 OVC006
TEMPO 1706/1713 6SM -DZ BR SCT003 OVC006
PROB30 1706/1713 OVC001
FM171300 33015G25KT P6SM SCT008 OVC015
FM172100 33015G25KT 6SM -SHRA BR SCT003 BKN008 OVC012
PROB40 1721/1724 BKN003 OVC008
FM180000 34015G25KT 4SM -RA BR BKN003 OVC008
PROB30 1800/1806 OVC001 RMK NXT FCST BY 171200Z
No reported NOTAMs for that airfield.



MET'MAP, your aeronautical weather chart ! - Copyright ORBIFLY December 2007 - Disclaimer

ORBIFLY MET'MAP TEAM :

Programming & Development : Alexandra Zaïnal
Concept & Development : Baudouin d'Aumeries
Co-Development & Prog : Marc-Olivier Méhu
Technical & hardware support : Manuel Goepfert

Contact : metmap@orbifly.com




SOURCES & CREDITS :

   NOAA